Time;durP1;ratioP1;P1;durP2;ratioP2;P2;SDS_P1;SDS_P2;PMS_P1;PMS_P2;Temp;Humidity;BMP_temperature;BMP_pressure;BME280_temperature;BME280_humidity;BME280_pressure;Samples;Min_cycle;Max_cycle;Signal;HPM_P1;HPM_P2
2021/07/04 00:01:59;;;;;;;109.68;102.00;;;;;;;15.68;100.00;100525.97;5039625;28;20440;-79
2021/07/04 00:04:26;;;;;;;100.57;92.93;;;;;;;15.45;100.00;100524.22;5042836;28;20045;-80
2021/07/04 00:06:52;;;;;;;112.80;104.25;;;;;;;15.60;100.00;100524.47;5033414;28;20061;-80
2021/07/04 00:09:19;;;;;;;99.05;91.72;;;;;;;15.35;100.00;100523.00;5041829;28;20056;-77
2021/07/04 00:11:47;;;;;;;106.32;98.43;;;;;;;15.45;100.00;100518.88;5043519;28;20482;-79
2021/07/04 00:14:15;;;;;;;104.07;96.55;;;;;;;15.54;100.00;100520.09;5043140;28;20053;-81
2021/07/04 00:16:43;;;;;;;117.05;108.65;;;;;;;15.43;100.00;100519.13;5043393;28;20071;-81
2021/07/04 00:19:11;;;;;;;90.45;83.45;;;;;;;15.61;100.00;100527.94;5041856;28;20049;-80
2021/07/04 00:21:38;;;;;;;124.80;115.75;;;;;;;15.64;100.00;100524.78;5041548;28;20053;-80
2021/07/04 00:24:06;;;;;;;121.55;113.25;;;;;;;15.97;100.00;100532.00;5041006;28;20052;-81
2021/07/04 00:26:33;;;;;;;96.05;88.70;;;;;;;15.91;100.00;100532.97;5036106;28;20053;-81
2021/07/04 00:29:00;;;;;;;97.88;90.18;;;;;;;15.91;100.00;100524.94;5043020;28;20041;-79
2021/07/04 00:31:27;;;;;;;95.72;88.53;;;;;;;15.72;100.00;100524.41;5037559;28;20045;-82
2021/07/04 00:33:55;;;;;;;128.27;118.93;;;;;;;15.40;100.00;100514.25;5031526;28;20462;-81
2021/07/04 00:36:22;;;;;;;117.22;108.72;;;;;;;15.64;100.00;100524.78;5040558;28;20053;-78
2021/07/04 00:38:49;;;;;;;93.88;86.18;;;;;;;15.62;100.00;100533.06;5039004;28;20045;-79
2021/07/04 00:41:15;;;;;;;87.85;81.05;;;;;;;15.70;100.00;100529.19;5036959;28;20060;-77
2021/07/04 00:43:43;;;;;;;79.72;73.43;;;;;;;15.73;100.00;100516.16;5042748;28;20052;-80
2021/07/04 00:46:10;;;;;;;108.03;100.03;;;;;;;15.41;100.00;100512.38;5042475;28;20053;-78
2021/07/04 00:48:37;;;;;;;112.55;104.22;;;;;;;15.19;100.00;100518.44;5041047;28;20103;-78
2021/07/04 00:51:05;;;;;;;104.63;96.90;;;;;;;15.33;100.00;100524.28;5042673;28;20393;-81
2021/07/04 00:53:32;;;;;;;109.35;101.47;;;;;;;15.27;100.00;100526.06;5044950;28;20053;-78
2021/07/04 00:55:59;;;;;;;92.70;85.22;;;;;;;15.43;100.00;100518.28;5040596;28;20060;-78
2021/07/04 00:58:26;;;;;;;74.50;68.43;;;;;;;15.67;100.00;100506.38;5039454;28;20076;-82
2021/07/04 01:00:53;;;;;;;81.70;75.10;;;;;;;15.66;100.00;100518.13;5043942;28;20056;-78
2021/07/04 01:03:19;;;;;;;95.53;87.78;;;;;;;15.45;100.00;100532.25;5042859;28;20061;-80
2021/07/04 01:05:46;;;;;;;84.07;77.70;;;;;;;15.56;100.00;100537.53;5049319;28;20048;-78
2021/07/04 01:08:15;;;;;;;84.78;78.28;;;;;;;15.46;100.00;100523.16;5038915;28;20049;-79
2021/07/04 01:10:42;;;;;;;106.63;98.63;;;;;;;15.35;100.00;100530.22;5045816;28;20104;-79
2021/07/04 01:13:11;;;;;;;101.90;94.22;;;;;;;15.51;100.00;100526.72;5047116;28;20047;-79
2021/07/04 01:15:38;;;;;;;77.60;71.53;;;;;;;15.66;100.00;100518.13;5044884;28;20049;-79
2021/07/04 01:18:09;;;;;;;94.97;87.78;;;;;;;15.73;100.00;100509.94;5043752;28;20417;-80
2021/07/04 01:20:37;;;;;;;86.22;79.32;;;;;;;15.77;100.00;100522.63;5051043;28;20045;-82
2021/07/04 01:23:07;;;;;;;96.93;89.22;;;;;;;15.66;100.00;100531.50;5049877;28;20088;-77
2021/07/04 01:25:38;;;;;;;79.82;73.40;;;;;;;15.81;100.00;100530.97;5042837;28;20126;-81
2021/07/04 01:28:05;;;;;;;90.03;83.10;;;;;;;15.87;100.00;100521.97;5042534;28;20052;-81
2021/07/04 01:30:33;;;;;;;80.75;74.45;;;;;;;15.58;100.00;100531.91;5045764;28;20460;-78
2021/07/04 01:33:01;;;;;;;93.20;86.00;;;;;;;15.61;100.00;100536.78;5044479;28;20064;-79
2021/07/04 01:35:27;;;;;;;89.03;82.38;;;;;;;15.68;100.00;100537.47;5045233;28;20055;-80
2021/07/04 01:37:55;;;;;;;98.70;91.30;;;;;;;15.37;100.00;100544.16;5038492;28;20045;-78
2021/07/04 01:40:23;;;;;;;92.53;85.63;;;;;;;15.41;100.00;100549.84;5046324;28;20052;-80
2021/07/04 01:42:51;;;;;;;86.10;79.50;;;;;;;15.57;100.00;100557.06;5045128;28;20041;-81
2021/07/04 01:45:19;;;;;;;95.55;88.25;;;;;;;15.27;100.00;100547.47;5044561;28;20132;-78
2021/07/04 01:47:49;;;;;;;91.32;84.30;;;;;;;15.59;100.00;100544.25;5043300;28;20520;-80
2021/07/04 01:50:20;;;;;;;104.50;96.57;;;;;;;15.19;100.00;100549.72;5046617;28;20077;-80
2021/07/04 01:52:46;;;;;;;94.55;87.40;;;;;;;15.17;100.00;100551.84;5036682;28;20072;-80
2021/07/04 01:55:16;;;;;;;105.03;97.38;;;;;;;15.20;100.00;100551.34;5043479;28;20504;-78
2021/07/04 01:57:44;;;;;;;93.38;86.15;;;;;;;15.07;100.00;100552.47;5043997;28;20049;-78
2021/07/04 02:02:48;;;;;;;106.88;98.90;;;;;;;15.00;100.00;100557.94;5079453;23;20139;-78
2021/07/04 02:05:15;;;;;;;109.70;101.53;;;;;;;14.72;100.00;100566.75;5043426;28;20398;-78
2021/07/04 02:07:42;;;;;;;117.35;108.65;;;;;;;14.63;100.00;100568.97;5042489;28;20049;-80
2021/07/04 02:10:15;;;;;;;95.38;88.18;;;;;;;14.90;100.00;100571.13;5039261;28;20059;-80
2021/07/04 02:12:44;;;;;;;95.57;88.32;;;;;;;14.94;100.00;100571.44;5043640;28;20056;-81
2021/07/04 02:15:12;;;;;;;96.82;89.25;;;;;;;14.91;100.00;100564.72;5043134;28;20060;-80
2021/07/04 02:17:39;;;;;;;96.95;89.28;;;;;;;14.68;100.00;100576.31;5045943;28;20053;-79
2021/07/04 02:20:32;;;;;;;143.77;133.85;;;;;;;14.37;100.00;100582.81;5045725;28;20057;-78
2021/07/04 02:23:00;;;;;;;108.18;100.05;;;;;;;14.73;100.00;100584.41;5037043;28;20045;-77
2021/07/04 02:25:27;;;;;;;112.10;103.57;;;;;;;14.79;100.00;100588.81;5045618;28;20052;-80
2021/07/04 02:27:56;;;;;;;131.93;122.63;;;;;;;14.70;100.00;100589.41;5044755;28;20045;-78
2021/07/04 02:30:24;;;;;;;90.07;83.18;;;;;;;14.76;100.00;100583.94;5043679;28;20059;-79
2021/07/04 02:32:51;;;;;;;99.22;91.65;;;;;;;14.29;100.00;100588.53;5043458;28;20053;-77
2021/07/04 02:35:18;;;;;;;111.13;102.72;;;;;;;14.00;100.00;100596.41;5047410;28;20049;-77
2021/07/04 02:37:45;;;;;;;97.20;89.45;;;;;;;14.37;100.00;100588.16;5037833;28;20547;-78
2021/07/04 02:40:12;;;;;;;102.20;94.30;;;;;;;14.18;100.00;100587.47;5042674;28;20053;-80
2021/07/04 02:42:40;;;;;;;102.40;94.63;;;;;;;14.35;100.00;100593.75;5043379;28;20053;-77
2021/07/04 02:45:09;;;;;;;85.25;78.50;;;;;;;14.57;100.00;100604.66;5044659;28;20432;-78
2021/07/04 02:47:36;;;;;;;86.07;79.60;;;;;;;14.58;100.00;100603.66;5044951;28;20111;-77
2021/07/04 02:50:05;;;;;;;92.32;85.15;;;;;;;14.52;100.00;100601.88;5045024;28;20048;-78
2021/07/04 02:52:32;;;;;;;98.68;90.88;;;;;;;14.29;100.00;100600.03;5035195;28;20377;-81
2021/07/04 02:54:58;;;;;;;90.68;83.85;;;;;;;14.49;100.00;100601.50;5042937;28;20064;-81
2021/07/04 02:57:25;;;;;;;89.10;82.07;;;;;;;14.73;100.00;100599.66;5044462;28;20548;-78
2021/07/04 02:59:52;;;;;;;87.78;81.20;;;;;;;14.58;100.00;100595.63;5038979;28;20053;-77
2021/07/04 03:02:21;;;;;;;117.85;109.30;;;;;;;14.08;100.00;100592.59;5044985;28;20064;-78
2021/07/04 03:04:48;;;;;;;112.60;104.70;;;;;;;14.26;100.00;100607.69;5040170;28;20087;-78
2021/07/04 03:07:15;;;;;;;91.07;83.95;;;;;;;14.33;100.00;100611.06;5043896;28;20049;-80
2021/07/04 03:09:42;;;;;;;96.90;89.90;;;;;;;14.58;100.00;100619.69;5044851;28;20132;-82
2021/07/04 03:12:09;;;;;;;91.25;84.40;;;;;;;14.21;100.00;100629.75;5044765;28;20131;-82
2021/07/04 03:14:36;;;;;;;105.05;97.35;;;;;;;14.41;100.00;100634.75;5044125;28;20041;-78
2021/07/04 03:17:04;;;;;;;105.63;98.13;;;;;;;14.85;100.00;100643.22;5037923;28;20473;-78
2021/07/04 03:19:32;;;;;;;93.80;86.78;;;;;;;15.06;100.00;100641.75;5044091;28;20413;-81
2021/07/04 03:21:59;;;;;;;92.13;84.90;;;;;;;15.11;100.00;100644.53;5035376;28;20045;-80
2021/07/04 03:24:26;;;;;;;92.00;85.13;;;;;;;14.99;100.00;100638.41;5044539;28;20477;-79
2021/07/04 03:26:53;;;;;;;88.03;81.30;;;;;;;14.84;100.00;100639.72;5040124;28;20046;-79
2021/07/04 03:29:20;;;;;;;91.25;84.03;;;;;;;14.77;100.00;100640.91;5041973;28;20044;-80
2021/07/04 03:31:47;;;;;;;90.45;83.53;;;;;;;15.13;100.00;100631.75;5039653;28;20111;-81
2021/07/04 03:34:14;;;;;;;92.03;84.93;;;;;;;15.44;100.00;100640.34;5045304;28;20048;-79
2021/07/04 03:36:42;;;;;;;76.68;70.97;;;;;;;15.53;100.00;100634.38;5041776;28;20053;-78
2021/07/04 03:39:09;;;;;;;82.32;76.07;;;;;;;15.41;100.00;100630.13;5042825;28;20057;-79
2021/07/04 03:41:36;;;;;;;85.30;78.60;;;;;;;15.28;100.00;100631.22;5041883;28;20064;-81
2021/07/04 03:44:02;;;;;;;82.10;75.53;;;;;;;15.67;100.00;100637.56;5040854;28;20064;-77
2021/07/04 03:46:30;;;;;;;85.18;78.35;;;;;;;15.75;100.00;100634.50;5042067;28;20405;-81
2021/07/04 03:48:56;;;;;;;85.88;79.53;;;;;;;15.94;100.00;100632.41;5041925;28;20052;-78
2021/07/04 03:51:23;;;;;;;88.93;82.43;;;;;;;15.96;100.00;100632.97;5040614;28;20445;-81
2021/07/04 03:53:51;;;;;;;76.28;70.47;;;;;;;16.15;100.00;100630.84;5037878;28;20056;-81
2021/07/04 03:56:19;;;;;;;90.65;84.53;;;;;;;16.18;100.00;100629.56;5041554;28;20064;-81
2021/07/04 03:58:46;;;;;;;90.68;83.82;;;;;;;16.29;100.00;100617.94;5041405;28;20049;-79
2021/07/04 04:01:19;;;;;;;76.80;70.85;;;;;;;16.33;100.00;100618.25;5040844;28;20077;-80
2021/07/04 04:03:46;;;;;;;82.53;75.82;;;;;;;16.54;100.00;100612.13;5042040;28;20092;-80
2021/07/04 04:06:12;;;;;;;77.47;71.55;;;;;;;16.56;100.00;100611.88;5041086;28;20061;-79
2021/07/04 04:08:39;;;;;;;82.57;75.90;;;;;;;16.76;100.00;100612.16;5037788;28;20045;-78
2021/07/04 04:11:08;;;;;;;78.43;71.72;;;;;;;16.89;100.00;100611.78;5039392;28;20064;-81
2021/07/04 04:13:35;;;;;;;84.85;78.00;;;;;;;16.96;100.00;100610.78;5042377;28;20049;-79
2021/07/04 04:16:02;;;;;;;85.25;78.43;;;;;;;17.13;100.00;100606.97;5041602;28;20064;-80
2021/07/04 04:18:29;;;;;;;97.60;89.50;;;;;;;17.27;100.00;100604.69;5043270;28;20524;-80
2021/07/04 04:20:56;;;;;;;99.97;92.38;;;;;;;17.34;100.00;100610.69;5042964;28;20044;-78
2021/07/04 04:23:24;;;;;;;91.57;84.38;;;;;;;17.33;100.00;100605.56;5036163;28;20075;-78
2021/07/04 04:25:51;;;;;;;105.93;98.40;;;;;;;17.50;100.00;100611.63;5041191;28;20508;-78
2021/07/04 04:28:19;;;;;;;92.55;85.70;;;;;;;17.59;100.00;100610.09;5038804;28;20068;-80
2021/07/04 04:30:46;;;;;;;83.93;77.53;;;;;;;17.78;100.00;100607.88;5042849;28;20045;-80
2021/07/04 04:33:13;;;;;;;78.85;72.50;;;;;;;17.71;100.00;100598.41;5040594;28;20083;-78
2021/07/04 04:35:40;;;;;;;85.22;78.72;;;;;;;17.79;100.00;100597.94;5041346;28;20044;-78
2021/07/04 04:38:06;;;;;;;76.80;70.80;;;;;;;17.90;100.00;100598.84;5037070;28;20053;-78
2021/07/04 04:40:34;;;;;;;80.25;73.72;;;;;;;17.95;100.00;100594.31;5043497;28;20389;-80
2021/07/04 04:43:01;;;;;;;70.45;65.18;;;;;;;17.98;100.00;100588.44;5039223;28;20041;-77
2021/07/04 04:45:29;;;;;;;73.97;68.57;;;;;;;18.10;100.00;100596.31;5042153;28;20053;-80
2021/07/04 04:47:56;;;;;;;69.57;64.28;;;;;;;18.20;100.00;100590.19;5043182;28;20049;-77
2021/07/04 04:50:23;;;;;;;66.13;60.72;;;;;;;18.33;100.00;100586.22;5040553;28;20111;-78
2021/07/04 04:52:50;;;;;;;70.13;65.03;;;;;;;18.35;100.00;100586.78;5041281;28;20062;-80
2021/07/04 04:55:16;;;;;;;73.68;68.10;;;;;;;18.53;100.00;100583.63;5040893;28;20052;-77
2021/07/04 04:57:43;;;;;;;60.72;56.13;;;;;;;18.63;100.00;100580.97;5040721;28;20049;-80
2021/07/04 05:00:13;;;;;;;63.30;58.85;;;;;;;18.75;100.00;100583.47;5043413;28;20056;-80
2021/07/04 05:02:42;;;;;;;62.13;57.45;;;;;;;18.66;100.00;100585.03;5037056;28;20065;-79
2021/07/04 05:05:09;;;;;;;56.17;51.83;;;;;;;18.72;100.00;100581.28;5041149;28;20072;-78
2021/07/04 05:07:36;;;;;;;59.83;55.08;;;;;;;18.81;100.00;100577.06;5035074;28;20504;-78
2021/07/04 05:10:04;;;;;;;56.40;52.10;;;;;;;19.05;100.00;100569.31;5040572;28;20049;-78
2021/07/04 05:12:31;;;;;;;54.40;50.20;;;;;;;19.12;100.00;100569.88;5041928;28;20060;-80
2021/07/04 05:14:59;;;;;;;53.67;49.45;;;;;;;19.16;100.00;100562.88;5040115;28;20060;-77
2021/07/04 05:17:26;;;;;;;54.90;50.78;;;;;;;19.22;100.00;100561.81;5047917;28;20389;-78
2021/07/04 05:19:54;;;;;;;49.47;45.55;;;;;;;19.28;100.00;100567.22;5039875;28;20053;-80
2021/07/04 05:22:20;;;;;;;54.75;50.35;;;;;;;19.51;100.00;100571.25;5041831;28;20060;-78
2021/07/04 05:24:47;;;;;;;54.45;50.30;;;;;;;19.48;100.00;100574.50;5038331;28;20477;-79
2021/07/04 05:27:14;;;;;;;47.13;43.45;;;;;;;19.52;100.00;100584.47;5042489;28;20049;-83
2021/07/04 05:29:41;;;;;;;48.42;44.42;;;;;;;19.48;100.00;100577.19;5043022;28;20053;-80
2021/07/04 05:32:08;;;;;;;50.95;47.15;;;;;;;20.56;100.00;100578.72;5038674;28;20049;-80
2021/07/04 05:34:35;;;;;;;45.55;41.75;;;;;;;20.42;100.00;100583.03;5043818;28;20045;-80
2021/07/04 05:37:04;;;;;;;45.65;42.05;;;;;;;20.06;100.00;100586.63;5039596;28;20437;-77
2021/07/04 05:39:31;;;;;;;78.03;72.43;;;;;;;20.84;100.00;100585.31;5042253;28;20060;-80
2021/07/04 05:41:57;;;;;;;48.88;45.08;;;;;;;20.45;100.00;100580.59;5042178;28;20055;-81
2021/07/04 05:44:24;;;;;;;50.58;46.58;;;;;;;19.66;100.00;100585.56;5041505;28;20122;-81
2021/07/04 05:46:51;;;;;;;54.72;50.05;;;;;;;19.85;100.00;100583.16;5043960;28;20048;-77
2021/07/04 06:54:36;;;;;;;59.83;55.30;;;;;;;21.33;100.00;100560.22;5038032;28;20412;-80
2021/07/04 06:59:44;;;;;;;51.45;47.25;;;;;;;21.51;100.00;100561.44;5030693;28;20041;-79
2021/07/04 07:02:11;;;;;;;46.22;42.55;;;;;;;22.44;100.00;100548.63;5030599;28;20076;-82
2021/07/04 07:04:37;;;;;;;47.20;43.58;;;;;;;22.02;100.00;100555.56;5030721;28;20052;-79
2021/07/04 07:07:04;;;;;;;52.90;49.00;;;;;;;22.30;100.00;100542.31;5030482;28;20061;-79
2021/07/04 07:09:31;;;;;;;56.78;52.55;;;;;;;21.96;100.00;100546.69;5031358;28;20046;-81
2021/07/04 07:11:59;;;;;;;50.38;46.58;;;;;;;22.07;100.00;100547.41;5031271;28;20393;-81
2021/07/04 07:14:26;;;;;;;51.13;47.42;;;;;;;22.16;100.00;100551.13;5031029;28;20413;-79
2021/07/04 07:16:53;;;;;;;54.28;50.35;;;;;;;22.21;100.00;100541.34;5028144;28;20401;-81
2021/07/04 07:19:20;;;;;;;52.10;48.03;;;;;;;22.38;100.00;100534.38;5030292;28;20053;-79
2021/07/04 07:21:47;;;;;;;57.10;52.80;;;;;;;22.52;100.00;100530.97;5030940;28;20052;-79
2021/07/04 07:24:13;;;;;;;43.10;39.80;;;;;;;22.57;100.00;100528.19;5030127;28;20057;-80
2021/07/04 07:26:40;;;;;;;46.42;42.67;;;;;;;22.91;100.00;100527.19;5030592;28;20053;-82
2021/07/04 07:29:08;;;;;;;44.33;40.90;;;;;;;22.64;100.00;100526.75;5029628;28;20137;-80
2021/07/04 07:31:36;;;;;;;42.72;39.63;;;;;;;22.72;100.00;100524.47;5013583;28;20046;-80
2021/07/04 07:34:03;;;;;;;42.10;38.75;;;;;;;23.07;100.00;100526.69;5019364;28;20042;-81
2021/07/04 07:36:29;;;;;;;42.05;38.78;;;;;;;23.14;100.00;100529.03;5013233;28;20469;-79
2021/07/04 07:38:56;;;;;;;55.08;50.97;;;;;;;23.82;100.00;100535.00;5015552;28;20115;-82
2021/07/04 07:41:23;;;;;;;40.08;37.08;;;;;;;23.55;100.00;100514.84;5014681;28;20054;-81
2021/07/04 07:43:50;;;;;;;39.97;36.92;;;;;;;23.63;100.00;100521.47;5020828;28;20045;-79
2021/07/04 07:46:18;;;;;;;37.20;34.50;;;;;;;23.88;100.00;100517.53;5018744;28;20471;-81
2021/07/04 07:48:47;;;;;;;36.15;33.45;;;;;;;23.50;100.00;100510.28;4998404;28;20054;-83
2021/07/04 07:51:14;;;;;;;34.47;31.98;;;;;;;23.56;100.00;100508.31;5005273;28;20133;-81
2021/07/04 07:53:41;;;;;;;35.15;32.60;;;;;;;23.68;100.00;100503.19;5006406;28;20065;-79
2021/07/04 07:56:08;;;;;;;40.50;37.60;;;;;;;24.11;100.00;100499.44;4988213;28;20053;-81
2021/07/04 07:58:35;;;;;;;38.95;36.15;;;;;;;24.07;100.00;100493.03;4984869;28;20046;-78
2021/07/04 08:01:02;;;;;;;36.40;33.78;;;;;;;23.99;100.00;100499.94;4987088;28;20050;-81
2021/07/04 08:03:30;;;;;;;38.85;35.95;;;;;;;24.25;100.00;100483.19;4986374;28;20058;-81
2021/07/04 08:05:57;;;;;;;40.05;37.05;;;;;;;24.26;100.00;100477.44;4987944;28;20434;-81
2021/07/04 08:08:24;;;;;;;40.00;36.17;;;;;;;24.07;100.00;100491.13;4986859;28;20050;-81
2021/07/04 08:10:51;;;;;;;39.08;36.28;;;;;;;24.56;100.00;100491.50;4985884;28;20042;-79
2021/07/04 08:13:18;;;;;;;41.03;37.35;;;;;;;24.95;100.00;100490.88;4983754;28;20094;-82
2021/07/04 08:15:44;;;;;;;37.25;34.20;;;;;;;25.05;100.00;100489.81;4982773;28;20050;-81
2021/07/04 08:18:11;;;;;;;33.20;30.70;;;;;;;24.23;100.00;100480.75;4988305;28;20553;-81
2021/07/04 08:20:39;;;;;;;36.88;34.25;;;;;;;24.87;100.00;100492.44;4989063;28;20399;-79
2021/07/04 08:23:06;;;;;;;38.72;35.33;;;;;;;25.11;100.00;100480.44;4983919;28;20042;-79
2021/07/04 08:25:33;;;;;;;32.65;29.95;;;;;;;24.61;100.00;100467.75;4988000;28;20080;-79
2021/07/04 08:28:00;;;;;;;32.88;30.48;;;;;;;24.47;100.00;100475.13;4987432;28;20049;-80
2021/07/04 08:30:27;;;;;;;31.55;28.88;;;;;;;24.57;100.00;100466.78;4989031;28;20486;-78
2021/07/04 08:32:54;;;;;;;32.90;30.88;;;;;;;24.75;100.00;100475.03;4984705;28;20447;-81
2021/07/04 08:35:21;;;;;;;36.67;34.13;;;;;;;25.33;100.00;100466.88;4981491;28;20050;-81
2021/07/04 08:37:49;;;;;;;38.20;34.63;;;;;;;25.54;100.00;100463.66;4980342;28;20050;-79
2021/07/04 08:40:16;;;;;;;28.20;26.30;;;;;;;25.18;100.00;100459.13;4978803;28;20039;-79
2021/07/04 08:42:43;;;;;;;29.63;27.55;;;;;;;25.05;100.00;100463.50;4980905;28;20046;-79
2021/07/04 08:45:10;;;;;;;29.52;27.42;;;;;;;25.51;100.00;100459.63;4982709;28;20471;-79
2021/07/04 08:47:37;;;;;;;31.27;28.98;;;;;;;25.33;100.00;100457.94;4988014;28;20486;-80
2021/07/04 08:50:06;;;;;;;30.20;28.30;;;;;;;25.45;100.00;100455.44;4982978;28;20061;-82
2021/07/04 08:52:33;;;;;;;28.80;26.60;;;;;;;25.48;100.00;100454.81;4981608;28;20050;-80
2021/07/04 08:55:02;;;;;;;28.35;26.27;;;;;;;25.30;100.00;100455.84;4988009;28;20410;-79
2021/07/04 08:57:29;;;;;;;29.52;27.00;;;;;;;25.44;100.00;100456.53;4985199;28;20125;-80
2021/07/04 08:59:56;;;;;;;29.45;27.55;;;;;;;25.83;100.00;100451.47;4978490;28;20049;-80
2021/07/04 09:02:31;;;;;;;27.50;25.65;;;;;;;26.00;100.00;100443.38;4985087;28;20102;-82
2021/07/04 09:05:00;;;;;;;28.83;26.73;;;;;;;25.68;100.00;100445.28;4983441;28;20082;-79
2021/07/04 09:07:27;;;;;;;27.17;25.17;;;;;;;26.21;100.00;100438.94;4989047;28;20050;-84
2021/07/04 09:09:57;;;;;;;27.85;25.85;;;;;;;26.08;100.00;100445.28;4986195;28;20042;-82
2021/07/04 11:49:30;;;;;;;27.40;25.50;;;;;;;27.30;100.00;100367.09;5053436;28;20443;-80
2021/07/04 11:52:00;;;;;;;27.48;25.73;;;;;;;27.32;100.00;100366.75;5047508;28;20118;-79
2021/07/04 11:54:29;;;;;;;26.17;24.48;;;;;;;27.59;100.00;100360.06;5043522;28;20507;-79
2021/07/04 11:57:29;;;;;;;26.33;24.27;;;;;;;27.32;100.00;100358.56;5042780;28;20056;-80
2021/07/04 11:59:52;;;;;;;27.45;24.90;;;;;;;26.99;100.00;100353.72;5042768;28;20049;-78
2021/07/04 12:02:19;;;;;;;25.75;23.88;;;;;;;27.53;100.00;100350.47;5045367;28;20049;-77
2021/07/04 12:04:47;;;;;;;25.40;23.60;;;;;;;27.40;100.00;100353.09;5047096;28;20057;-80
2021/07/04 12:07:15;;;;;;;25.05;23.15;;;;;;;27.31;89.23;100355.06;5048689;28;20060;-80
2021/07/04 12:09:47;;;;;;;25.88;23.88;;;;;;;27.12;100.00;100358.16;5042371;28;20423;-78
2021/07/04 12:12:16;;;;;;;26.70;24.90;;;;;;;26.99;100.00;100350.97;5046465;28;20464;-79
2021/07/04 12:14:44;;;;;;;26.58;24.67;;;;;;;27.22;100.00;100346.13;5040102;28;20064;-78
2021/07/04 12:17:27;;;;;;;25.30;23.55;;;;;;;28.35;94.71;100344.63;5046710;28;20045;-79
2021/07/04 12:20:00;;;;;;;25.67;23.67;;;;;;;28.27;100.00;100344.38;5045374;28;20465;-80
2021/07/04 12:22:30;;;;;;;25.30;23.50;;;;;;;27.13;100.00;100348.84;5045915;28;20065;-82
2021/07/04 12:24:58;;;;;;;24.73;22.63;;;;;;;27.31;100.00;100354.25;5050902;28;20045;-80
2021/07/04 12:27:39;;;;;;;25.45;23.63;;;;;;;27.07;100.00;100357.53;5047427;28;20049;-77
2021/07/04 12:30:14;;;;;;;24.52;22.83;;;;;;;27.45;97.17;100351.31;5041575;28;20041;-81
2021/07/04 12:32:44;;;;;;;24.58;22.60;;;;;;;27.68;99.90;100352.63;5036937;28;20516;-78
2021/07/04 12:35:25;;;;;;;23.98;22.17;;;;;;;27.82;100.00;100346.97;5041272;28;20477;-78
2021/07/04 12:37:54;;;;;;;26.00;24.20;;;;;;;27.27;94.13;100356.84;5043387;28;20057;-81
2021/07/04 12:40:23;;;;;;;25.17;23.38;;;;;;;27.19;93.71;100341.31;5045695;28;20390;-78
2021/07/04 12:42:50;;;;;;;25.58;23.77;;;;;;;27.68;100.00;100341.72;5044743;28;20115;-81
2021/07/04 12:45:20;;;;;;;26.88;24.80;;;;;;;28.60;98.53;100332.72;5046578;28;20049;-81
2021/07/04 12:47:58;;;;;;;25.08;23.27;;;;;;;28.95;94.94;100337.81;5045042;28;20041;-81
2021/07/04 12:50:38;;;;;;;28.50;26.45;;;;;;;27.42;100.00;100341.06;5029308;28;20576;-80
2021/07/04 12:53:05;;;;;;;25.63;23.83;;;;;;;27.24;100.00;100341.16;5032219;28;20457;-79
2021/07/04 12:55:45;;;;;;;26.73;24.83;;;;;;;27.69;94.50;100337.88;5033255;28;20198;-77
2021/07/04 12:58:30;;;;;;;28.10;26.20;;;;;;;27.54;100.00;100335.72;5030611;28;20057;-80
2021/07/04 13:01:10;;;;;;;29.17;26.88;;;;;;;27.26;100.00;100335.34;5030002;28;20069;-81
2021/07/04 13:03:48;;;;;;;25.83;23.88;;;;;;;27.17;100.00;100335.38;5023049;28;20060;-84
2021/07/04 13:06:49;;;;;;;28.58;26.52;;;;;;;26.99;100.00;100344.72;5032052;28;20073;-81
2021/07/04 13:09:21;;;;;;;33.00;30.17;;;;;;;26.97;100.00;100349.72;5028083;28;20052;-79
2021/07/04 13:12:16;;;;;;;33.13;30.23;;;;;;;26.81;100.00;100342.06;5026893;28;20486;-78
2021/07/04 13:14:45;;;;;;;51.13;46.53;;;;;;;27.28;100.00;100341.28;4995418;28;20052;-79
2021/07/04 13:17:21;;;;;;;60.72;54.13;;;;;;;27.66;100.00;100333.09;5030580;28;20552;-79
2021/07/04 13:19:49;;;;;;;58.55;52.45;;;;;;;27.20;100.00;100333.94;5028259;28;20038;-81
2021/07/04 13:22:19;;;;;;;56.90;51.10;;;;;;;27.20;100.00;100342.91;5033125;28;20057;-82
2021/07/04 13:24:49;;;;;;;57.10;51.20;;;;;;;27.02;100.00;100344.06;5023873;28;20470;-79
2021/07/04 13:27:19;;;;;;;53.95;48.45;;;;;;;27.04;100.00;100347.28;5030056;28;20053;-82
2021/07/04 13:29:46;;;;;;;55.13;49.42;;;;;;;26.84;100.00;100348.75;5022209;28;20124;-81
2021/07/04 13:32:19;;;;;;;54.75;49.25;;;;;;;26.84;100.00;100346.03;5024789;28;20406;-81
2021/07/04 13:34:50;;;;;;;55.92;50.15;;;;;;;26.64;100.00;100342.09;5025111;28;20045;-78
2021/07/04 13:37:19;;;;;;;28.75;26.20;;;;;;;26.88;100.00;100341.56;5024455;28;20049;-79
2021/07/04 13:39:56;;;;;;;27.13;24.98;;;;;;;27.11;100.00;100337.47;5031996;28;20057;-79
2021/07/04 13:42:25;;;;;;;27.67;25.67;;;;;;;27.21;100.00;100341.78;5030721;28;20123;-79
2021/07/04 13:44:53;;;;;;;28.38;26.58;;;;;;;26.83;100.00;100344.44;5027897;28;20053;-79
2021/07/04 13:47:21;;;;;;;27.98;25.98;;;;;;;27.18;100.00;100337.00;5031802;28;20060;-86
2021/07/04 13:49:48;;;;;;;28.42;26.55;;;;;;;27.06;100.00;100334.13;5025355;28;20057;-81
2021/07/04 13:52:15;;;;;;;26.55;24.65;;;;;;;27.05;100.00;100329.78;5031299;28;20061;-81
2021/07/04 13:54:44;;;;;;;28.02;26.02;;;;;;;27.10;100.00;100329.63;5029143;28;20275;-81
2021/07/04 13:57:12;;;;;;;28.45;26.63;;;;;;;27.21;100.00;100324.66;5032162;28;20061;-81
2021/07/04 13:59:40;;;;;;;29.63;27.25;;;;;;;27.15;100.00;100313.91;5030452;28;20041;-82
2021/07/04 14:02:07;;;;;;;28.50;26.30;;;;;;;26.82;100.00;100327.31;5030891;28;20060;-81
2021/07/04 14:04:34;;;;;;;31.30;29.08;;;;;;;27.29;100.00;100321.84;5029093;28;20111;-79
2021/07/04 14:07:02;;;;;;;28.42;26.40;;;;;;;27.72;100.00;100311.88;5021350;28;20446;-78
2021/07/04 14:09:29;;;;;;;28.80;26.83;;;;;;;27.38;100.00;100310.91;5023066;28;20076;-79
2021/07/04 14:11:58;;;;;;;26.60;24.75;;;;;;;27.36;100.00;100307.75;5020440;28;20050;-81
2021/07/04 14:14:25;;;;;;;27.83;25.90;;;;;;;27.35;100.00;100309.66;5026808;28;20057;-84
2021/07/04 14:16:53;;;;;;;27.52;25.63;;;;;;;27.47;100.00;100311.66;5031738;28;20049;-81
2021/07/04 14:19:20;;;;;;;27.85;26.05;;;;;;;27.53;100.00;100307.63;5031293;28;20394;-78
2021/07/04 14:21:47;;;;;;;27.85;26.00;;;;;;;27.52;100.00;100299.78;5032148;28;20435;-80
2021/07/04 14:24:14;;;;;;;27.48;25.48;;;;;;;27.41;100.00;100302.06;5029583;28;20076;-78
2021/07/04 14:26:40;;;;;;;26.20;24.50;;;;;;;27.42;100.00;100298.25;5030451;28;20052;-81
2021/07/04 14:29:09;;;;;;;29.35;27.20;;;;;;;27.22;100.00;100298.97;5029563;28;20045;-78
2021/07/04 14:31:36;;;;;;;26.67;24.58;;;;;;;26.90;100.00;100293.78;5028077;28;20052;-82
2021/07/04 14:34:04;;;;;;;26.45;24.65;;;;;;;27.12;100.00;100298.19;5030551;28;20417;-81
2021/07/04 14:36:31;;;;;;;26.92;25.13;;;;;;;27.08;100.00;100291.81;5032272;28;20057;-81
2021/07/04 14:39:01;;;;;;;27.33;25.52;;;;;;;26.64;100.00;100291.13;5031045;28;20072;-81
2021/07/04 14:41:28;;;;;;;27.80;25.70;;;;;;;26.84;100.00;100288.81;5023602;28;20077;-81
2021/07/04 14:43:55;;;;;;;27.42;25.50;;;;;;;26.88;100.00;100296.03;5021927;28;20481;-78
2021/07/04 14:46:23;;;;;;;28.73;26.63;;;;;;;26.24;100.00;100298.69;5022852;28;20553;-80
2021/07/04 14:48:50;;;;;;;27.25;25.25;;;;;;;26.38;100.00;100291.13;5027347;28;20140;-82
2021/07/04 14:51:17;;;;;;;27.45;25.55;;;;;;;26.41;100.00;100290.50;5022605;28;20061;-79
2021/07/04 14:53:44;;;;;;;28.23;26.33;;;;;;;26.35;100.00;100293.72;5026758;28;20049;-79